createdAt,value
2019-06-27T00:00:36.295Z,78.53
2019-06-27T00:05:40.038Z,43.23
2019-06-27T00:10:43.832Z,34.33
2019-06-27T00:15:47.552Z,165.27
2019-06-27T00:20:53.983Z,36.03
2019-06-27T00:25:57.875Z,61.97
2019-06-27T00:31:01.889Z,38.77
2019-06-27T00:36:05.736Z,33.90
2019-06-27T00:41:09.557Z,103.33
2019-06-27T00:46:13.511Z,110.43
2019-06-27T00:51:17.204Z,57.33
2019-06-27T00:56:20.903Z,27.10
2019-06-27T01:01:24.648Z,67.97
2019-06-27T01:06:28.479Z,26.90
2019-06-27T01:11:32.203Z,306.87
2019-06-27T01:16:36.059Z,56.93
2019-06-27T01:21:40.097Z,33.07
2019-06-27T01:26:43.895Z,145.53
2019-06-27T01:31:47.751Z,40.80
2019-06-27T01:36:51.467Z,84.57
2019-06-27T01:41:55.215Z,28.17
2019-06-27T01:46:59.430Z,158.70
2019-06-27T01:52:03.174Z,135.53
2019-06-27T01:57:06.993Z,31.87
2019-06-27T02:02:10.839Z,113.97
2019-06-27T02:07:14.861Z,43.50
2019-06-27T02:12:18.611Z,142.20
2019-06-27T02:17:23.099Z,174.30
2019-06-27T02:22:26.864Z,34.63
2019-06-27T02:27:30.670Z,170.13
2019-06-27T02:32:34.515Z,187.43
2019-06-27T02:37:38.352Z,706.07
2019-06-27T02:42:42.271Z,247.90
2019-06-27T02:47:46.097Z,64.80
2019-06-27T02:52:50.071Z,235.30
2019-06-27T02:57:53.884Z,141.00
2019-06-27T03:02:57.669Z,694.63
2019-06-27T03:08:01.459Z,565.73
2019-06-27T03:13:05.432Z,207.07
2019-06-27T03:18:09.223Z,341.77
2019-06-27T03:23:13.468Z,175.03
2019-06-27T03:28:17.479Z,150.10
2019-06-27T03:33:21.227Z,141.30
2019-06-27T03:38:25.051Z,595.43
2019-06-27T03:43:28.914Z,945.60
2019-06-27T03:48:32.657Z,908.93
2019-06-27T03:53:36.388Z,941.43
2019-06-27T03:58:40.190Z,978.10
2019-06-27T04:03:43.929Z,999.90
2019-06-27T04:08:47.908Z,999.90
2019-06-27T04:13:51.623Z,999.90
2019-06-27T04:18:55.366Z,999.90
2019-06-27T04:23:59.127Z,999.90
2019-06-27T04:29:03.426Z,999.90
2019-06-27T04:34:07.248Z,999.90
2019-06-27T04:39:11.844Z,999.90
2019-06-27T04:44:15.856Z,999.90
2019-06-27T04:49:19.587Z,967.90
2019-06-27T04:54:23.339Z,999.90
2019-06-27T04:59:27.205Z,944.47
2019-06-27T05:04:30.970Z,999.90
2019-06-27T05:09:34.954Z,999.90
2019-06-27T05:14:38.783Z,429.90
2019-06-27T05:19:42.614Z,452.93
2019-06-27T05:24:46.969Z,643.80
2019-06-27T05:29:50.783Z,999.90
2019-06-27T05:34:54.515Z,999.90
2019-06-27T05:39:58.318Z,999.90
2019-06-27T05:45:02.357Z,999.90
2019-06-27T05:50:06.707Z,999.90
2019-06-27T05:55:10.912Z,999.90
2019-06-27T06:00:27.730Z,999.90
2019-06-27T06:05:20.499Z,999.90
2019-06-27T06:10:24.231Z,999.90
2019-06-27T06:15:28.122Z,999.90
2019-06-27T06:20:31.934Z,999.90
2019-06-27T06:25:35.663Z,999.90
2019-06-27T06:30:44.589Z,999.90
2019-06-27T06:35:44.875Z,999.90
2019-06-27T06:40:48.702Z,999.90
2019-06-27T06:45:52.459Z,999.90
2019-06-27T06:50:56.569Z,999.90
2019-06-27T06:56:00.566Z,999.90
2019-06-27T07:01:04.371Z,999.90
2019-06-27T07:06:08.404Z,999.90
2019-06-27T07:11:12.255Z,999.90
2019-06-27T07:16:16.087Z,999.90
2019-06-27T07:21:19.851Z,999.90
2019-06-27T07:26:23.604Z,999.90
2019-06-27T07:31:27.668Z,999.90
2019-06-27T07:36:31.552Z,999.90
2019-06-27T07:41:35.384Z,999.90
2019-06-27T07:46:39.415Z,999.90
2019-06-27T07:51:43.286Z,999.90
2019-06-27T07:56:47.070Z,943.30
2019-06-27T08:01:50.799Z,999.90
2019-06-27T08:06:54.554Z,888.47
2019-06-27T08:11:58.902Z,877.60
2019-06-27T08:17:02.821Z,729.13
2019-06-27T08:22:06.616Z,746.63
2019-06-27T08:27:10.372Z,716.80
2019-06-27T08:32:14.106Z,773.80
2019-06-27T08:37:18.243Z,703.50
2019-06-27T08:42:22.067Z,722.40
2019-06-27T08:47:25.813Z,997.80
2019-06-27T08:52:29.924Z,699.97
2019-06-27T08:57:34.116Z,735.10
2019-06-27T09:02:37.854Z,999.90
2019-06-27T09:07:41.819Z,772.03
2019-06-27T09:12:46.218Z,838.73
2019-06-27T09:17:50.182Z,903.43
2019-06-27T09:22:54.203Z,999.90
2019-06-27T09:27:57.948Z,913.27
2019-06-27T09:33:01.875Z,713.67
2019-06-27T09:38:06.091Z,999.90
2019-06-27T09:43:10.215Z,999.90
2019-06-27T09:48:14.209Z,999.90
2019-06-27T09:53:18.127Z,999.90
2019-06-27T09:58:21.992Z,944.90
2019-06-27T10:03:25.854Z,999.90
2019-06-27T10:08:29.860Z,999.90
2019-06-27T10:13:35.881Z,999.90
2019-06-27T10:18:39.692Z,999.90
2019-06-27T10:23:43.563Z,789.73
2019-06-27T10:28:47.311Z,999.90
2019-06-27T10:33:51.463Z,801.73
2019-06-27T10:38:55.247Z,735.07
2019-06-27T10:43:59.099Z,999.90
2019-06-27T10:49:02.910Z,999.90
2019-06-27T10:54:06.891Z,999.90
2019-06-27T10:59:10.731Z,999.70
2019-06-27T11:04:14.780Z,999.90
2019-06-27T11:09:18.870Z,999.90
2019-06-27T11:14:22.738Z,999.90
2019-06-27T11:19:29.752Z,999.90
2019-06-27T11:24:33.578Z,999.90
2019-06-27T11:29:37.407Z,920.60
2019-06-27T11:34:41.183Z,944.87
2019-06-27T11:39:44.952Z,905.63
2019-06-27T11:44:48.891Z,895.43
2019-06-27T11:49:52.965Z,999.90
2019-06-27T11:54:56.881Z,999.90
2019-06-27T12:00:00.698Z,999.90
2019-06-27T12:05:07.082Z,945.73
2019-06-27T12:10:12.636Z,999.90
2019-06-27T12:15:16.586Z,896.57
2019-06-27T12:20:20.401Z,999.90
2019-06-27T12:25:24.180Z,942.97
2019-06-27T12:30:28.087Z,999.90
2019-06-27T12:35:32.044Z,711.97
2019-06-27T12:40:35.910Z,999.90
2019-06-27T12:45:39.748Z,999.90
2019-06-27T12:50:43.491Z,999.90
2019-06-27T12:55:47.787Z,859.50
2019-06-27T13:00:51.896Z,971.27
2019-06-27T13:05:55.627Z,999.90
2019-06-27T13:11:00.499Z,890.83
2019-06-27T13:16:04.744Z,999.90
2019-06-27T13:21:08.747Z,964.83
2019-06-27T13:26:13.810Z,999.90
2019-06-27T13:31:18.056Z,999.90
2019-06-27T13:36:22.243Z,999.90
2019-06-27T13:41:26.876Z,999.90
2019-06-27T13:46:31.044Z,991.30
2019-06-27T13:51:34.847Z,940.50
2019-06-27T13:56:38.957Z,999.90
2019-06-27T14:01:42.889Z,987.43
2019-06-27T14:06:46.708Z,863.00
2019-06-27T14:11:50.734Z,999.90
2019-06-27T14:16:54.597Z,999.90
2019-06-27T14:21:59.021Z,999.90
2019-06-27T14:27:04.669Z,960.03
2019-06-27T14:32:08.772Z,999.90
2019-06-27T14:37:12.694Z,998.80
2019-06-27T14:42:16.471Z,999.90
2019-06-27T14:47:21.732Z,999.90
2019-06-27T14:52:25.901Z,994.53
2019-06-27T14:57:29.747Z,999.90
2019-06-27T15:02:33.680Z,823.03
2019-06-27T15:07:37.584Z,999.90
2019-06-27T15:12:55.852Z,999.90
2019-06-27T15:17:48.084Z,999.90
2019-06-27T15:22:52.053Z,999.90
2019-06-27T15:27:55.834Z,999.90
2019-06-27T15:33:00.260Z,983.17
2019-06-27T15:38:04.048Z,999.90
2019-06-27T15:43:09.200Z,999.90
2019-06-27T15:48:12.947Z,999.90
2019-06-27T15:53:17.125Z,999.90
2019-06-27T15:58:20.918Z,999.90
2019-06-27T16:03:24.836Z,999.90
2019-06-27T16:08:29.927Z,999.90
2019-06-27T16:13:33.902Z,999.90
2019-06-27T16:18:40.818Z,999.90
2019-06-27T16:23:43.252Z,999.90
2019-06-27T16:28:47.040Z,999.90
2019-06-27T16:33:51.030Z,999.90
2019-06-27T16:38:54.868Z,999.90
2019-06-27T16:43:59.291Z,999.90
2019-06-27T16:49:03.426Z,999.90
2019-06-27T16:54:07.220Z,999.90
2019-06-27T16:59:10.943Z,999.90
2019-06-27T17:04:14.784Z,999.90
2019-06-27T17:09:18.507Z,999.90
2019-06-27T17:14:22.550Z,999.90
2019-06-27T17:19:26.368Z,999.90
2019-06-27T17:24:30.095Z,999.90
2019-06-27T17:29:34.175Z,999.90
2019-06-27T17:34:37.975Z,999.90
2019-06-27T17:39:41.729Z,999.90
2019-06-27T17:44:45.682Z,999.90
2019-06-27T17:49:49.563Z,999.90
2019-06-27T17:54:53.335Z,999.90
2019-06-27T17:59:57.099Z,999.90
2019-06-27T18:05:02.323Z,999.90
2019-06-27T18:10:07.257Z,999.90
2019-06-27T18:15:11.446Z,999.90
2019-06-27T18:20:15.875Z,999.90
2019-06-27T18:25:19.722Z,999.90
2019-06-27T18:30:24.767Z,999.90
2019-06-27T18:35:28.960Z,999.90
2019-06-27T18:40:32.726Z,999.90
2019-06-27T18:45:36.495Z,999.90
2019-06-27T18:50:40.311Z,999.90
2019-06-27T18:55:44.427Z,999.90
2019-06-27T19:00:50.244Z,999.90
2019-06-27T19:06:06.585Z,999.90
2019-06-27T19:11:23.306Z,999.90
2019-06-27T19:16:33.525Z,999.90
2019-06-27T19:21:59.153Z,999.90
2019-06-27T19:27:03.571Z,999.90
2019-06-27T19:32:09.207Z,901.07
2019-06-27T19:37:13.393Z,992.60
2019-06-27T19:42:17.255Z,947.93
2019-06-27T19:47:21.344Z,999.90
2019-06-27T19:52:25.183Z,999.90
2019-06-27T19:57:29.113Z,891.33
2019-06-27T20:02:32.925Z,828.10
2019-06-27T20:07:36.828Z,728.93
2019-06-27T20:12:40.618Z,503.90
2019-06-27T20:17:44.412Z,364.87
2019-06-27T20:22:48.242Z,433.47
2019-06-27T20:27:52.188Z,119.00
2019-06-27T20:32:56.360Z,176.03
2019-06-27T20:38:00.367Z,82.73
2019-06-27T20:43:06.159Z,57.17
2019-06-27T20:48:10.006Z,79.13
2019-06-27T20:53:13.769Z,88.03
2019-06-27T20:58:17.584Z,96.10
2019-06-27T21:03:21.632Z,25.57
2019-06-27T21:08:25.344Z,100.67
2019-06-27T21:13:29.095Z,27.07
2019-06-27T21:18:33.207Z,27.30
2019-06-27T21:23:37.383Z,63.33
2019-06-27T21:28:41.242Z,40.60
2019-06-27T21:33:45.099Z,42.90
2019-06-27T21:38:48.864Z,78.03
2019-06-27T21:43:52.664Z,26.10
2019-06-27T21:48:56.750Z,43.17
2019-06-27T21:54:00.514Z,71.47
2019-06-27T21:59:04.600Z,47.77
2019-06-27T22:04:08.669Z,32.47
2019-06-27T22:09:23.983Z,125.43
2019-06-27T22:14:19.421Z,50.50
2019-06-27T22:19:23.140Z,59.37
2019-06-27T22:24:27.143Z,108.37
2019-06-27T22:29:30.869Z,109.03
2019-06-27T22:34:34.593Z,41.03
2019-06-27T22:39:56.162Z,106.83
2019-06-27T22:45:18.167Z,119.63
2019-06-27T22:50:35.053Z,126.53
2019-06-27T22:55:38.808Z,127.10
2019-06-27T23:00:42.596Z,112.13
2019-06-27T23:05:46.380Z,102.93
2019-06-27T23:10:50.144Z,87.30
2019-06-27T23:15:53.975Z,89.33
2019-06-27T23:20:57.706Z,126.60
2019-06-27T23:26:01.452Z,74.73
2019-06-27T23:31:05.267Z,97.93
2019-06-27T23:36:09.023Z,113.73
2019-06-27T23:41:12.891Z,95.77
2019-06-27T23:46:34.488Z,120.90
2019-06-27T23:51:38.234Z,80.33
2019-06-27T23:56:42.256Z,93.70
